Time;durP1;ratioP1;P1;durP2;ratioP2;P2;SDS_P1;SDS_P2;PMS_P1;PMS_P2;Temp;Humidity;BMP_temperature;BMP_pressure;BME280_temperature;BME280_humidity;BME280_pressure;Samples;Min_cycle;Max_cycle;Signal;HPM_P1;HPM_P2
2022/05/28 00:00:17;;;;;;;0.50;0.30;;;;;;;16.00;54.91;99655.63;4479992;32;35576;-82
2022/05/28 00:03:04;;;;;;;0.90;0.35;;;;;;;15.79;55.30;99661.25;4466290;32;34949;-83
2022/05/28 00:05:51;;;;;;;2.08;0.50;;;;;;;15.59;55.80;99652.69;4468470;32;34276;-83
2022/05/28 00:08:38;;;;;;;0.98;0.30;;;;;;;15.79;55.22;99661.25;4480257;32;33878;-81
2022/05/28 00:11:37;;;;;;;0.77;0.35;;;;;;;15.38;55.95;99663.03;4479557;32;34090;-82
2022/05/28 00:14:24;;;;;;;1.10;0.40;;;;;;;15.54;55.84;99655.69;4478684;32;35394;-83
2022/05/28 00:17:10;;;;;;;0.70;0.50;;;;;;;15.74;55.40;99654.81;4466184;32;34778;-82
2022/05/28 00:19:57;;;;;;;3.00;0.70;;;;;;;15.73;55.21;99663.44;4465730;32;35194;-82
2022/05/28 00:22:44;;;;;;;1.37;0.40;;;;;;;15.45;56.05;99653.03;4476224;32;34235;-82
2022/05/28 00:25:31;;;;;;;1.05;0.40;;;;;;;15.64;55.38;99649.69;4466173;32;34653;-81
2022/05/28 00:28:21;;;;;;;1.87;0.50;;;;;;;15.22;56.06;99647.09;4476457;31;35441;-82
2022/05/28 00:31:08;;;;;;;0.85;0.40;;;;;;;15.61;55.25;99646.84;4461472;32;35305;-80
2022/05/28 00:33:54;;;;;;;0.70;0.30;;;;;;;15.98;53.91;99655.94;4480158;31;34222;-83
2022/05/28 00:36:41;;;;;;;3.35;0.50;;;;;;;16.03;53.82;99675.06;4473887;31;34864;-82
2022/05/28 00:39:27;;;;;;;1.73;0.40;;;;;;;15.71;54.37;99687.84;4462932;32;35906;-82
2022/05/28 00:42:14;;;;;;;1.05;0.52;;;;;;;15.80;54.54;99687.75;4477433;32;33733;-82
2022/05/28 00:45:00;;;;;;;1.85;0.40;;;;;;;15.76;53.34;99701.41;4487994;31;34130;-82
2022/05/28 00:47:49;;;;;;;0.30;0.20;;;;;;;15.61;54.29;99710.34;4475731;32;37309;-82
2022/05/28 00:50:36;;;;;;;0.52;0.35;;;;;;;15.83;53.87;99695.34;4461790;32;34415;-83
2022/05/28 00:53:23;;;;;;;2.33;0.50;;;;;;;15.25;54.54;99698.91;4459429;32;32992;-82
2022/05/28 00:56:11;;;;;;;1.08;0.40;;;;;;;15.46;54.21;99695.25;4457283;32;34241;-83
2022/05/28 00:58:59;;;;;;;0.95;0.37;;;;;;;15.27;54.49;99685.53;4464596;32;35051;-82
2022/05/28 01:01:45;;;;;;;1.17;0.60;;;;;;;15.83;53.06;99678.75;4463763;32;33477;-83
2022/05/28 01:04:45;;;;;;;3.12;0.55;;;;;;;15.55;53.75;99673.87;4477941;32;34705;-81
2022/05/28 01:07:43;;;;;;;2.37;0.60;;;;;;;15.00;55.34;99653.06;4462269;32;34632;-83
2022/05/28 01:10:42;;;;;;;1.30;0.68;;;;;;;15.45;54.21;99654.97;4456007;32;34617;-81
2022/05/28 01:13:41;;;;;;;1.30;0.40;;;;;;;14.85;56.27;99654.47;4478616;31;33397;-82
2022/05/28 01:16:38;;;;;;;0.88;0.40;;;;;;;15.22;55.45;99647.09;4474256;32;33820;-83
2022/05/28 01:19:50;;;;;;;2.30;0.68;;;;;;;15.65;54.21;99633.94;4463782;32;34389;-82
2022/05/28 01:22:55;;;;;;;4.05;0.90;;;;;;;15.29;55.38;99643.81;4480058;32;35692;-82
2022/05/28 01:26:24;;;;;;;1.75;0.60;;;;;;;15.30;55.60;99639.88;4476077;32;34853;-83
2022/05/28 01:29:13;;;;;;;1.23;0.50;;;;;;;15.18;56.32;99628.84;4471194;32;33816;-82
2022/05/28 01:32:00;;;;;;;2.25;1.08;;;;;;;15.11;56.75;99634.87;4467516;32;34277;-83
2022/05/28 01:34:47;;;;;;;1.77;0.70;;;;;;;15.46;55.84;99620.72;4467091;32;34851;-83
2022/05/28 01:37:34;;;;;;;1.75;0.80;;;;;;;15.70;55.24;99630.97;4466840;32;34649;-83
2022/05/28 01:40:22;;;;;;;1.67;0.70;;;;;;;15.95;54.11;99626.25;4467775;32;35100;-83
2022/05/28 01:43:11;;;;;;;1.12;0.73;;;;;;;15.63;54.99;99630.72;4465392;32;33741;-83
2022/05/28 01:45:58;;;;;;;2.37;0.80;;;;;;;15.51;55.55;99623.22;4468067;32;34585;-82
2022/05/28 01:48:46;;;;;;;2.15;0.80;;;;;;;15.47;56.13;99627.84;4466762;32;35214;-82
2022/05/28 01:51:37;;;;;;;1.45;0.75;;;;;;;15.12;57.22;99644.81;4453372;32;33959;-81
2022/05/28 01:54:25;;;;;;;;;;;;;;;15.16;56.80;99651.25;4455614;32;35477;-82
2022/05/28 01:57:13;;;;;;;1.60;0.60;;;;;;;15.42;56.62;99655.66;4460496;32;35199;-82
2022/05/28 02:00:00;;;;;;;1.37;0.70;;;;;;;15.47;56.33;99655.44;4462227;32;34507;-81
2022/05/28 02:02:49;;;;;;;1.83;0.70;;;;;;;14.84;58.59;99650.91;4473519;32;35006;-82
2022/05/28 02:05:36;;;;;;;0.80;0.60;;;;;;;14.72;59.17;99656.38;4464787;32;35280;-82
2022/05/28 02:08:23;;;;;;;1.55;0.52;;;;;;;14.44;60.59;99647.84;4464484;32;35218;-82
2022/05/28 02:11:16;;;;;;;1.08;0.50;;;;;;;14.41;61.11;99637.47;4476600;32;35007;-82
2022/05/28 02:14:32;;;;;;;1.83;0.60;;;;;;;15.07;59.05;99640.28;4458859;32;35089;-82
2022/05/28 02:17:51;;;;;;;0.93;0.60;;;;;;;14.50;61.14;99643.72;4448962;32;35244;-83
2022/05/28 02:20:41;;;;;;;1.60;0.52;;;;;;;14.34;62.51;99659.25;4447043;32;34978;-81
2022/05/28 02:23:50;;;;;;;2.78;0.75;;;;;;;14.49;61.84;99647.62;4452591;32;35406;-83
2022/05/28 02:26:46;;;;;;;1.50;0.60;;;;;;;14.15;63.12;99643.19;4444924;32;34738;-82
2022/05/28 02:29:34;;;;;;;1.58;0.60;;;;;;;14.42;62.36;99654.81;4450736;32;35129;-82
2022/05/28 02:32:22;;;;;;;1.67;0.73;;;;;;;14.85;60.91;99651.72;4444381;32;35186;-82
2022/05/28 02:35:12;;;;;;;0.95;0.73;;;;;;;14.39;62.38;99662.62;4443987;32;34083;-83
2022/05/28 02:38:00;;;;;;;1.85;0.62;;;;;;;14.15;63.32;99651.47;4452177;32;34191;-82
2022/05/28 02:40:46;;;;;;;4.18;0.80;;;;;;;14.33;63.39;99672.22;4448839;32;34355;-82
2022/05/28 02:43:33;;;;;;;1.85;0.88;;;;;;;14.09;64.47;99675.66;4446357;32;36496;-82
2022/05/28 02:46:20;;;;;;;1.27;0.62;;;;;;;14.51;63.13;99672.09;4453452;32;34469;-82
2022/05/28 02:49:07;;;;;;;1.80;0.73;;;;;;;14.56;62.80;99666.41;4435675;32;33724;-81
2022/05/28 02:51:54;;;;;;;1.70;0.65;;;;;;;15.04;60.65;99670.53;4449377;32;34543;-82
2022/05/28 02:54:40;;;;;;;2.58;0.90;;;;;;;14.39;63.22;99668.13;4454992;32;34997;-82
2022/05/28 02:57:27;;;;;;;1.02;0.50;;;;;;;14.52;62.77;99671.00;4443902;32;35400;-83
2022/05/28 03:00:17;;;;;;;1.60;0.80;;;;;;;14.60;62.29;99657.16;4455250;32;34090;-82
2022/05/28 03:03:04;;;;;;;1.67;0.70;;;;;;;14.30;63.90;99655.56;4442650;32;34247;-82
2022/05/28 03:05:51;;;;;;;1.37;0.80;;;;;;;14.37;63.91;99650.31;4460677;32;35048;-83
2022/05/28 03:08:37;;;;;;;1.20;0.73;;;;;;;13.87;65.49;99646.44;4455726;32;35064;-83
2022/05/28 03:11:24;;;;;;;1.20;0.50;;;;;;;13.87;66.00;99646.44;4452015;32;33808;-82
2022/05/28 03:14:11;;;;;;;1.40;0.70;;;;;;;13.84;66.53;99640.78;4466618;31;34996;-83
2022/05/28 03:16:58;;;;;;;2.58;0.70;;;;;;;13.79;66.22;99636.28;4464774;32;35645;-82
2022/05/28 03:19:46;;;;;;;1.55;0.70;;;;;;;13.73;66.92;99635.66;4482131;32;34783;-81
2022/05/28 03:22:32;;;;;;;1.83;0.70;;;;;;;13.75;66.50;99643.59;4461564;32;35145;-83
2022/05/28 03:25:18;;;;;;;3.15;0.80;;;;;;;13.62;66.64;99650.13;4468898;32;34548;-82
2022/05/28 03:28:06;;;;;;;1.50;0.88;;;;;;;14.05;65.26;99638.06;4468161;32;36028;-82
2022/05/28 03:30:54;;;;;;;2.55;0.88;;;;;;;14.03;65.24;99643.09;4467420;32;34232;-80
2022/05/28 03:33:42;;;;;;;1.67;0.82;;;;;;;13.92;64.97;99645.44;4477851;32;34134;-80
2022/05/28 03:36:30;;;;;;;1.62;0.90;;;;;;;14.07;64.78;99631.06;4466920;32;34358;-81
2022/05/28 03:39:16;;;;;;;2.22;0.93;;;;;;;14.02;64.32;99623.00;4465873;32;35511;-82
2022/05/28 03:42:03;;;;;;;4.80;0.85;;;;;;;14.31;63.99;99618.59;4465309;32;34072;-81
2022/05/28 03:44:52;;;;;;;1.87;1.00;;;;;;;13.95;64.93;99631.81;4477752;31;34331;-81
2022/05/28 03:47:39;;;;;;;2.30;0.70;;;;;;;14.00;64.73;99641.81;4465101;32;35781;-82
2022/05/28 03:50:25;;;;;;;1.92;0.90;;;;;;;13.99;64.63;99644.91;4455945;32;35897;-81
2022/05/28 03:53:12;;;;;;;2.95;1.33;;;;;;;14.09;64.67;99641.78;4466429;32;33463;-81
2022/05/28 03:55:59;;;;;;;1.87;0.75;;;;;;;14.46;63.68;99647.47;4465724;31;33779;-80
2022/05/28 03:58:47;;;;;;;3.17;0.80;;;;;;;14.26;64.55;99649.91;4476641;32;34721;-82
2022/05/28 04:01:34;;;;;;;2.65;0.82;;;;;;;14.36;63.95;99641.25;4473852;31;34448;-82
2022/05/28 04:04:21;;;;;;;3.25;0.70;;;;;;;14.80;62.33;99638.16;4453944;32;34533;-82
2022/05/28 04:07:10;;;;;;;2.35;0.80;;;;;;;14.52;63.14;99638.72;4467135;32;32322;-82
2022/05/28 04:09:57;;;;;;;1.87;0.80;;;;;;;14.34;64.19;99627.00;4466199;32;34681;-81
2022/05/28 04:12:45;;;;;;;3.10;0.90;;;;;;;15.10;61.83;99633.28;4468045;32;34650;-82
2022/05/28 04:15:32;;;;;;;3.87;0.80;;;;;;;14.57;63.40;99634.94;4477402;32;35473;-82
2022/05/28 04:18:19;;;;;;;1.75;0.82;;;;;;;14.21;64.01;99643.81;4477223;32;34739;-81
2022/05/28 04:21:07;;;;;;;1.80;0.75;;;;;;;14.63;63.31;99647.41;4465997;32;34738;-83
2022/05/28 04:23:53;;;;;;;1.77;0.98;;;;;;;15.54;60.41;99647.41;4465366;32;35935;-83
2022/05/28 04:26:42;;;;;;;2.22;1.02;;;;;;;14.66;63.26;99638.44;4478652;32;35384;-83
2022/05/28 04:29:33;;;;;;;3.50;1.02;;;;;;;14.67;63.14;99640.03;4479243;32;34090;-82
2022/05/28 04:32:19;;;;;;;4.28;0.88;;;;;;;15.37;60.85;99637.38;4463916;32;34364;-83
2022/05/28 04:35:06;;;;;;;2.25;0.88;;;;;;;15.02;61.86;99634.97;4477783;32;34981;-82
2022/05/28 04:37:53;;;;;;;3.33;0.90;;;;;;;15.43;60.19;99637.97;4480155;32;34144;-83
2022/05/28 04:40:39;;;;;;;2.75;1.42;;;;;;;14.87;61.56;99632.06;4476811;31;34954;-83
2022/05/28 04:43:26;;;;;;;2.83;0.88;;;;;;;15.06;61.69;99643.41;4479642;31;34729;-83
2022/05/28 04:46:12;;;;;;;2.35;0.85;;;;;;;14.66;62.51;99643.13;4478162;32;34374;-82
2022/05/28 04:49:00;;;;;;;2.45;0.90;;;;;;;14.27;64.54;99653.47;4473097;32;34696;-83
2022/05/28 04:51:47;;;;;;;1.60;0.90;;;;;;;14.93;62.35;99659.09;4474266;32;34748;-82
2022/05/28 04:54:35;;;;;;;2.28;0.70;;;;;;;15.17;61.55;99650.09;4474433;31;34666;-82
2022/05/28 04:57:23;;;;;;;2.80;1.00;;;;;;;15.03;62.48;99652.38;4473544;31;35213;-82
2022/05/28 05:00:15;;;;;;;1.37;0.80;;;;;;;15.05;61.88;99661.94;4480371;32;33388;-83
2022/05/28 05:03:02;;;;;;;2.17;0.95;;;;;;;14.94;63.71;99654.38;4467543;32;34183;-81
2022/05/28 05:05:49;;;;;;;4.00;1.25;;;;;;;14.95;63.04;99654.06;4467548;32;34221;-83
2022/05/28 05:08:37;;;;;;;3.62;1.05;;;;;;;14.96;61.81;99663.94;4465802;31;34834;-82
2022/05/28 05:11:24;;;;;;;2.80;1.00;;;;;;;15.11;60.38;99670.75;4474937;31;34630;-83
2022/05/28 05:14:11;;;;;;;1.70;0.82;;;;;;;15.37;59.55;99673.28;4475345;31;34179;-82
2022/05/28 05:16:59;;;;;;;2.95;1.10;;;;;;;15.43;59.44;99671.91;4469462;32;34417;-82
2022/05/28 05:19:49;;;;;;;2.70;1.00;;;;;;;14.84;60.12;99655.63;4477579;31;35661;-83
2022/05/28 05:22:40;;;;;;;3.60;0.93;;;;;;;14.84;59.48;99656.44;4478830;31;34451;-82
2022/05/28 05:25:31;;;;;;;1.62;0.82;;;;;;;14.94;59.41;99657.16;4465749;32;34144;-83
2022/05/28 05:28:20;;;;;;;5.72;1.08;;;;;;;15.44;58.40;99658.91;4480898;32;34081;-83
2022/05/28 05:31:07;;;;;;;2.28;1.00;;;;;;;15.20;59.28;99663.22;4475623;31;34464;-83
2022/05/28 05:33:54;;;;;;;2.90;1.05;;;;;;;15.78;57.78;99662.41;4461194;31;33411;-83
2022/05/28 05:36:40;;;;;;;2.80;1.10;;;;;;;15.43;59.01;99660.06;4467505;32;35007;-83
2022/05/28 05:39:31;;;;;;;5.00;1.45;;;;;;;15.24;58.42;99661.38;4467747;32;34667;-83
2022/05/28 05:45:13;;;;;;;2.15;0.70;;;;;;;15.99;56.08;99665.84;4478314;31;35475;-83
2022/05/28 05:48:09;;;;;;;2.65;0.73;;;;;;;15.90;56.38;99665.16;4475962;32;34946;-83
2022/05/28 05:51:08;;;;;;;3.17;1.45;;;;;;;16.12;56.19;99670.22;4477887;32;34200;-82
2022/05/28 05:54:02;;;;;;;2.20;0.90;;;;;;;15.62;60.01;99673.28;4474061;31;35004;-82
2022/05/28 05:56:55;;;;;;;1.92;1.08;;;;;;;15.68;60.33;99666.41;4465497;32;35062;-82
2022/05/28 05:59:41;;;;;;;2.53;1.08;;;;;;;15.66;60.79;99660.41;4464103;32;34681;-82
2022/05/28 06:02:28;;;;;;;2.65;0.90;;;;;;;15.44;61.94;99662.44;4457927;31;34209;-82
2022/05/28 06:05:16;;;;;;;2.50;0.80;;;;;;;16.16;59.62;99657.28;4463289;32;34628;-80
2022/05/28 06:08:04;;;;;;;4.55;1.02;;;;;;;15.58;60.69;99653.84;4464587;32;35282;-81
2022/05/28 06:10:58;;;;;;;2.70;1.00;;;;;;;15.25;60.54;99651.97;4474651;31;34845;-82
2022/05/28 06:13:49;;;;;;;3.78;0.90;;;;;;;16.02;60.37;99648.56;4469105;32;34707;-82
2022/05/28 06:16:43;;;;;;;2.58;0.80;;;;;;;15.90;59.05;99649.38;4477562;31;35097;-82
2022/05/28 06:19:44;;;;;;;4.07;1.00;;;;;;;15.60;59.35;99659.84;4475687;31;34515;-82
2022/05/28 06:22:31;;;;;;;2.42;0.90;;;;;;;16.30;55.19;99656.13;4472087;31;34061;-82
2022/05/28 06:25:18;;;;;;;3.12;0.90;;;;;;;16.87;53.49;99649.50;4463758;32;35186;-83
2022/05/28 06:28:08;;;;;;;2.33;1.10;;;;;;;17.25;51.36;99648.19;4455152;32;36038;-83
2022/05/28 06:31:02;;;;;;;3.17;0.98;;;;;;;17.09;50.54;99640.63;4455045;32;35280;-83
2022/05/28 06:33:50;;;;;;;2.22;1.10;;;;;;;16.24;57.08;99663.06;4466227;32;33803;-82
2022/05/28 06:39:36;;;;;;;3.67;1.15;;;;;;;16.42;56.58;99654.16;4465893;32;35051;-77
2022/05/28 06:42:23;;;;;;;3.97;1.20;;;;;;;16.11;56.91;99652.03;4464252;31;33940;-78
2022/05/28 06:45:18;;;;;;;4.90;0.95;;;;;;;15.73;57.70;99652.38;4476220;31;35016;-79
2022/05/28 06:48:08;;;;;;;4.65;1.20;;;;;;;16.29;57.28;99652.56;4461587;31;34518;-78
2022/05/28 06:51:04;;;;;;;2.00;1.05;;;;;;;16.67;55.12;99643.00;4477264;32;35895;-78
2022/05/28 06:53:58;;;;;;;1.90;1.00;;;;;;;16.14;57.61;99650.53;4477851;31;33460;-78
2022/05/28 06:56:45;;;;;;;3.53;1.00;;;;;;;16.66;56.58;99641.41;4466291;31;34986;-78
2022/05/28 06:59:33;;;;;;;2.97;1.05;;;;;;;16.24;57.37;99657.53;4469121;31;35021;-77
2022/05/28 07:02:23;;;;;;;4.20;1.08;;;;;;;16.80;55.08;99654.88;4473341;31;35036;-76
2022/05/28 07:05:13;;;;;;;4.15;1.23;;;;;;;16.12;57.49;99664.69;4464441;31;34477;-76
2022/05/28 07:08:09;;;;;;;2.55;1.12;;;;;;;16.62;56.77;99666.19;4463207;32;34228;-77
2022/05/28 07:11:02;;;;;;;2.33;0.90;;;;;;;16.39;57.78;99674.22;4476236;31;34618;-76
2022/05/28 07:13:55;;;;;;;4.25;1.10;;;;;;;16.88;55.15;99673.28;4473866;31;33971;-75
2022/05/28 07:16:43;;;;;;;2.80;1.10;;;;;;;16.22;56.56;99681.94;4471384;31;34178;-74
2022/05/28 07:19:31;;;;;;;3.92;1.17;;;;;;;15.89;55.30;99680.13;4469302;31;33787;-75
2022/05/28 07:22:20;;;;;;;2.67;1.20;;;;;;;16.16;55.94;99675.84;4475660;32;34478;-75
2022/05/28 07:25:17;;;;;;;5.70;1.20;;;;;;;16.21;56.83;99683.91;4458773;32;35614;-75
2022/05/28 07:28:24;;;;;;;2.70;0.82;;;;;;;16.48;57.03;99693.44;4459519;32;34546;-75
2022/05/28 07:31:14;;;;;;;4.62;2.08;;;;;;;15.93;55.36;99690.13;4456310;31;34141;-75
2022/05/28 07:34:08;;;;;;;3.28;1.02;;;;;;;16.21;55.87;99694.16;4461536;32;35461;-76
2022/05/28 07:36:57;;;;;;;3.83;1.00;;;;;;;16.78;54.66;99699.47;4452446;32;35971;-73
2022/05/28 07:39:44;;;;;;;3.30;1.77;;;;;;;16.28;53.12;99697.13;4477534;32;35425;-75
2022/05/28 07:42:33;;;;;;;3.03;0.90;;;;;;;16.73;52.00;99704.41;4479000;32;34175;-75
2022/05/28 07:45:21;;;;;;;3.15;0.85;;;;;;;16.54;52.94;99702.28;4474990;31;37332;-75
2022/05/28 07:48:18;;;;;;;3.08;0.82;;;;;;;16.61;51.15;99706.06;4474103;32;35028;-74
2022/05/28 07:51:12;;;;;;;7.22;1.00;;;;;;;16.21;52.12;99696.94;4475168;31;34601;-75
2022/05/28 07:54:05;;;;;;;2.83;0.95;;;;;;;16.82;52.40;99705.09;4471876;31;33566;-75
2022/05/28 07:56:53;;;;;;;3.42;1.00;;;;;;;16.64;53.43;99712.84;4471422;31;35455;-75
2022/05/28 07:59:40;;;;;;;5.30;1.10;;;;;;;16.88;53.76;99709.25;4461444;32;35010;-75
2022/05/28 08:02:26;;;;;;;2.87;1.08;;;;;;;16.93;52.59;99702.66;4466245;32;35091;-74
2022/05/28 08:05:17;;;;;;;3.50;1.17;;;;;;;16.94;52.12;99710.59;4460644;31;35127;-75
2022/05/28 08:08:06;;;;;;;4.78;1.17;;;;;;;16.57;52.24;99707.94;4473890;32;34640;-74
2022/05/28 08:10:56;;;;;;;6.93;1.20;;;;;;;17.36;49.64;99701.88;4463339;32;35706;-74
2022/05/28 08:13:51;;;;;;;4.82;1.85;;;;;;;17.42;49.20;99692.16;4474393;32;35384;-73
2022/05/28 08:16:48;;;;;;;3.05;1.10;;;;;;;17.62;47.55;99692.25;4461797;32;34752;-74
2022/05/28 08:19:36;;;;;;;4.07;1.40;;;;;;;17.02;48.54;99698.59;4476209;32;34607;-75
2022/05/28 08:25:31;;;;;;;4.82;1.10;;;;;;;17.65;48.63;99703.44;4464421;32;34740;-75
2022/05/28 08:28:21;;;;;;;4.43;1.40;;;;;;;17.39;47.78;99711.41;4464348;32;36353;-75
2022/05/28 08:31:11;;;;;;;4.85;1.12;;;;;;;17.51;47.67;99712.16;4466130;32;34668;-74
2022/05/28 08:33:59;;;;;;;4.00;1.30;;;;;;;16.59;48.61;99727.75;4477676;32;35639;-74
2022/05/28 08:36:48;;;;;;;6.47;2.22;;;;;;;17.15;46.85;99721.47;4474187;32;34610;-75
2022/05/28 08:39:37;;;;;;;4.12;1.30;;;;;;;17.19;44.58;99718.78;4477653;32;34867;-76
2022/05/28 08:42:27;;;;;;;4.90;1.62;;;;;;;16.82;45.93;99719.75;4478755;32;34189;-76
2022/05/28 08:45:17;;;;;;;4.15;1.58;;;;;;;17.37;43.77;99703.47;4451333;32;38035;-76
2022/05/28 08:48:09;;;;;;;5.22;1.30;;;;;;;17.51;43.76;99705.81;4453838;31;34593;-76
2022/05/28 08:51:07;;;;;;;3.37;1.12;;;;;;;17.23;45.11;99714.97;4469554;32;33829;-75
2022/05/28 08:54:09;;;;;;;3.15;1.40;;;;;;;16.95;45.18;99714.97;4468882;32;35185;-76
2022/05/28 08:57:08;;;;;;;5.87;1.27;;;;;;;17.67;44.50;99700.28;4468938;31;35100;-76
2022/05/28 08:59:59;;;;;;;6.12;1.50;;;;;;;18.16;44.38;99695.19;4479726;32;35123;-77
2022/05/28 09:02:53;;;;;;;4.80;1.10;;;;;;;18.43;41.75;99700.94;4468859;32;34369;-76
2022/05/28 09:05:47;;;;;;;6.12;2.30;;;;;;;18.64;42.48;99708.91;4461881;32;34555;-76
2022/05/28 09:09:00;;;;;;;4.22;1.23;;;;;;;18.37;43.76;99708.75;4477957;32;34867;-77
2022/05/28 09:12:06;;;;;;;4.37;1.37;;;;;;;18.64;42.32;99704.19;4479723;32;35084;-77
2022/05/28 09:14:54;;;;;;;4.80;1.35;;;;;;;18.09;44.69;99691.44;4479741;31;34238;-75
2022/05/28 09:17:45;;;;;;;3.72;1.30;;;;;;;18.28;42.80;99688.72;4458148;32;34177;-76
2022/05/28 09:20:40;;;;;;;6.40;1.17;;;;;;;18.30;45.01;99689.19;4466657;32;34783;-76
2022/05/28 09:23:36;;;;;;;4.00;1.30;;;;;;;19.06;43.69;99689.59;4464792;32;34168;-76
2022/05/28 09:26:32;;;;;;;6.62;2.67;;;;;;;18.62;43.76;99691.84;4468811;32;34888;-76
2022/05/28 09:29:31;;;;;;;3.95;1.30;;;;;;;18.73;43.46;99692.09;4468022;32;35564;-76
2022/05/28 09:33:05;;;;;;;6.10;1.25;;;;;;;19.07;43.47;99685.66;4481321;31;33983;-76
2022/05/28 09:36:18;;;;;;;2.50;1.15;;;;;;;18.42;44.30;99689.03;4413823;32;34415;-76
2022/05/28 09:39:29;;;;;;;6.15;1.42;;;;;;;18.33;45.56;99682.91;4468021;31;34069;-76
2022/05/28 09:42:57;;;;;;;3.65;1.12;;;;;;;18.64;44.65;99692.28;4467858;32;35189;-76
2022/05/28 09:45:55;;;;;;;4.57;1.40;;;;;;;18.94;44.95;99688.97;4458954;32;36021;-76
2022/05/28 09:48:42;;;;;;;4.75;1.37;;;;;;;18.31;45.65;99690.78;4467797;32;35517;-76
2022/05/28 09:51:32;;;;;;;5.53;2.20;;;;;;;18.45;45.64;99700.59;4467751;31;36712;-76
2022/05/28 09:57:29;;;;;;;4.55;1.58;;;;;;;18.15;47.66;99712.19;4470590;32;34892;-76
2022/05/28 10:00:20;;;;;;;8.30;1.50;;;;;;;18.04;48.18;99706.38;4462288;32;36641;-76
2022/05/28 10:06:34;;;;;;;5.57;1.50;;;;;;;18.40;46.54;99696.13;4461723;32;34534;-76
2022/05/28 10:09:31;;;;;;;4.20;1.90;;;;;;;17.86;47.58;99699.59;4463615;32;35972;-76
2022/05/28 10:12:31;;;;;;;5.20;1.60;;;;;;;18.33;46.95;99694.00;4460068;32;34159;-75
2022/05/28 10:15:29;;;;;;;7.53;1.90;;;;;;;18.56;46.50;99684.97;4460075;32;34664;-77
2022/05/28 10:18:20;;;;;;;5.70;2.05;;;;;;;19.15;45.58;99686.59;4453764;32;34590;-77
2022/05/28 10:21:17;;;;;;;3.97;1.75;;;;;;;18.79;46.37;99671.22;4457436;32;35583;-76
2022/05/28 10:24:26;;;;;;;5.30;1.90;;;;;;;18.31;45.71;99676.09;4443418;32;33719;-77
2022/05/28 10:27:30;;;;;;;4.40;1.42;;;;;;;19.24;45.01;99662.19;4443842;32;34945;-78
2022/05/28 10:30:37;;;;;;;4.05;1.73;;;;;;;19.71;43.45;99677.72;4446485;32;36015;-76
2022/05/28 10:33:30;;;;;;;7.05;1.60;;;;;;;18.51;43.63;99666.66;4445197;32;35952;-77
2022/05/28 10:39:24;;;;;;;3.83;1.20;;;;;;;18.41;43.95;99668.03;4433188;32;33721;-76
2022/05/28 10:42:17;;;;;;;2.75;1.35;;;;;;;18.82;41.73;99657.41;4431584;32;34595;-76
2022/05/28 10:45:07;;;;;;;4.00;1.20;;;;;;;18.94;40.58;99656.44;4444077;32;35969;-77
2022/05/28 10:48:15;;;;;;;;;;;;;;;19.29;41.41;99658.28;4440512;32;34650;-77
2022/05/28 10:54:46;;;;;;;6.05;1.40;;;;;;;19.23;43.22;99651.44;4437033;32;34674;-78
2022/05/28 10:58:11;;;;;;;6.53;1.80;;;;;;;19.61;40.12;99649.69;4447252;32;35864;-77
2022/05/28 11:01:05;;;;;;;7.30;1.35;;;;;;;19.97;38.52;99649.13;4431885;32;35063;-76
2022/05/28 11:04:14;;;;;;;5.53;1.00;;;;;;;19.49;39.55;99637.59;4448249;32;34095;-76
2022/05/28 11:07:14;;;;;;;6.10;1.20;;;;;;;19.55;39.76;99643.66;4445736;32;35573;-75
2022/05/28 11:10:32;;;;;;;2.85;0.85;;;;;;;19.14;41.64;99640.56;4432133;32;35023;-76
2022/05/28 11:13:46;;;;;;;6.00;1.35;;;;;;;19.10;38.14;99643.28;4450743;32;34541;-76
2022/05/28 11:16:47;;;;;;;8.77;1.73;;;;;;;19.00;38.66;99648.63;4463020;32;33580;-75
2022/05/28 11:20:00;;;;;;;3.95;1.20;;;;;;;18.42;37.79;99647.44;4463000;32;34208;-76
2022/05/28 11:23:27;;;;;;;4.78;1.50;;;;;;;18.57;35.92;99639.41;4448411;32;34934;-74
2022/05/28 11:26:27;;;;;;;5.68;1.20;;;;;;;18.42;37.05;99636.34;4463281;32;35041;-75
2022/05/28 11:29:39;;;;;;;5.00;1.55;;;;;;;18.53;36.80;99630.22;4458419;32;34080;-75
2022/05/28 11:32:31;;;;;;;8.20;1.67;;;;;;;19.39;36.18;99645.78;4462780;32;34653;-74
2022/05/28 11:35:43;;;;;;;5.30;1.50;;;;;;;19.06;36.21;99630.50;4459661;32;35661;-75
2022/05/28 11:38:41;;;;;;;3.20;1.40;;;;;;;19.61;36.31;99625.50;4462525;32;35302;-75
2022/05/28 11:41:41;;;;;;;5.47;1.23;;;;;;;18.72;36.97;99610.78;4459870;32;35436;-76
2022/05/28 11:44:42;;;;;;;6.72;1.12;;;;;;;18.99;36.27;99617.28;4460567;32;34724;-75
2022/05/28 11:47:52;;;;;;;4.72;1.10;;;;;;;18.66;35.30;99632.47;4460417;32;36196;-76
2022/05/28 11:53:53;;;;;;;;;;;;;;;18.36;36.49;99615.59;4458597;32;33647;-76
2022/05/28 11:56:41;;;;;;;2.78;1.02;;;;;;;19.04;36.22;99603.09;4458179;32;34852;-76
2022/05/28 11:59:31;;;;;;;7.72;1.55;;;;;;;18.74;37.70;99616.00;4452874;32;36100;-75
2022/05/28 12:02:31;;;;;;;5.15;1.48;;;;;;;18.33;37.54;99602.47;4460233;32;35081;-76
2022/05/28 12:05:41;;;;;;;6.55;1.77;;;;;;;18.81;37.46;99594.75;4461704;32;34083;-77
2022/05/28 12:08:57;;;;;;;3.45;0.95;;;;;;;18.85;38.05;99594.81;4462283;32;35604;-76
2022/05/28 12:12:17;;;;;;;2.20;1.23;;;;;;;18.51;34.07;99596.47;4459204;32;35975;-75
2022/05/28 12:15:14;;;;;;;2.75;1.12;;;;;;;18.55;34.52;99597.34;4453624;32;181765;-75
2022/05/28 12:18:27;;;;;;;3.03;1.10;;;;;;;18.29;31.88;99612.66;4458768;32;34094;-75
2022/05/28 12:21:26;;;;;;;6.78;0.90;;;;;;;18.28;34.37;99588.87;4439228;32;35583;-75
2022/05/28 12:24:21;;;;;;;4.68;1.02;;;;;;;19.20;33.02;99589.09;4427582;32;34404;-75
2022/05/28 12:27:25;;;;;;;3.08;1.25;;;;;;;19.18;33.35;99587.84;4438074;32;34655;-74
2022/05/28 12:30:47;;;;;;;3.95;1.10;;;;;;;19.14;32.54;99590.56;4433954;32;33716;-76
2022/05/28 12:33:55;;;;;;;6.05;0.98;;;;;;;18.62;34.59;99594.72;4415878;32;34648;-74
2022/05/28 12:36:47;;;;;;;4.95;1.00;;;;;;;18.91;34.27;99595.31;4432317;32;35015;-76
2022/05/28 12:39:43;;;;;;;4.82;1.10;;;;;;;18.84;32.28;99599.56;4442309;32;34802;-75
2022/05/28 12:42:36;;;;;;;4.20;1.15;;;;;;;18.82;32.75;99585.25;4448808;32;34892;-74
2022/05/28 12:45:39;;;;;;;2.00;1.00;;;;;;;18.40;33.78;99590.72;4435241;32;35581;-75
2022/05/28 12:48:40;;;;;;;5.03;1.00;;;;;;;18.86;34.77;99582.53;4441394;32;34425;-75
2022/05/28 12:51:52;;;;;;;2.62;0.85;;;;;;;18.36;34.40;99574.00;4430308;32;35001;-76
2022/05/28 12:54:59;;;;;;;2.97;0.70;;;;;;;18.08;33.95;99567.84;4437345;32;33669;-75
2022/05/28 13:01:05;;;;;;;2.45;1.00;;;;;;;18.47;33.16;99568.69;4445591;32;35930;-75
2022/05/28 13:04:18;;;;;;;3.17;0.80;;;;;;;18.30;33.34;99574.63;4435042;32;35375;-75
2022/05/28 13:07:21;;;;;;;2.92;0.90;;;;;;;18.65;32.27;99555.94;4422235;32;34097;-74
2022/05/28 13:10:28;;;;;;;3.15;1.20;;;;;;;18.36;32.97;99553.78;4434118;32;34147;-75
2022/05/28 13:16:30;;;;;;;7.55;1.00;;;;;;;18.68;33.14;99542.50;4443870;32;34119;-75
2022/05/28 13:19:37;;;;;;;3.42;0.95;;;;;;;18.62;31.32;99542.00;4435199;32;34021;-74
2022/05/28 13:22:50;;;;;;;4.65;0.77;;;;;;;18.32;33.30;99556.47;4431049;32;35906;-75
2022/05/28 13:29:15;;;;;;;3.15;0.70;;;;;;;18.67;31.07;99552.81;4442545;32;34209;-74
2022/05/28 13:32:19;;;;;;;4.22;0.85;;;;;;;18.25;31.63;99555.53;4431880;32;33555;-75
2022/05/28 13:35:12;;;;;;;3.75;0.70;;;;;;;18.34;31.49;99559.69;4430485;32;36694;-75
2022/05/28 13:38:04;;;;;;;2.80;0.70;;;;;;;18.53;31.52;99552.53;4435165;32;36530;-76
2022/05/28 13:41:04;;;;;;;4.10;0.80;;;;;;;18.31;31.27;99560.41;4434256;32;34713;-75
2022/05/28 13:47:00;;;;;;;5.18;0.90;;;;;;;18.38;31.14;99555.00;4431932;32;34203;-76
2022/05/28 13:49:59;;;;;;;3.20;0.70;;;;;;;18.95;32.20;99551.75;4434532;32;34904;-74
2022/05/28 13:52:45;;;;;;;3.25;0.70;;;;;;;18.93;30.81;99541.03;4438620;32;34483;-75
2022/05/28 13:55:39;;;;;;;;;;;;;;;19.37;30.54;99556.44;4444044;32;34176;-76
2022/05/28 13:58:35;;;;;;;7.70;1.12;;;;;;;19.11;28.92;99546.88;4433805;32;34982;-76
2022/05/28 14:01:42;;;;;;;5.30;0.93;;;;;;;19.05;29.57;99542.81;4435389;32;35900;-75
2022/05/28 14:04:32;;;;;;;2.97;0.73;;;;;;;19.52;28.27;99533.25;4435735;32;33392;-74
2022/05/28 14:07:23;;;;;;;2.17;0.70;;;;;;;19.77;28.34;99536.44;4444508;32;32020;-75
2022/05/28 14:10:27;;;;;;;;;;;;;;;20.05;27.89;99527.69;4448058;32;34656;-74
2022/05/28 14:13:22;;;;;;;2.90;0.70;;;;;;;19.53;27.82;99524.53;4448907;32;35284;-74
2022/05/28 14:16:19;;;;;;;7.72;0.80;;;;;;;19.57;28.20;99527.38;4450844;32;35136;-75